createdAt,value
2017-09-01T00:00:13.310Z,0
2017-09-01T00:01:22.150Z,0
2017-09-01T00:02:30.992Z,0
2017-09-01T00:03:39.837Z,0
2017-09-01T00:04:48.678Z,0
2017-09-01T00:05:57.673Z,0
2017-09-01T00:07:06.513Z,0
2017-09-01T00:08:15.349Z,0
2017-09-01T00:09:24.189Z,0
2017-09-01T00:10:33.033Z,0
2017-09-01T00:11:41.923Z,0
2017-09-01T00:12:50.763Z,0
2017-09-01T00:13:59.603Z,0
2017-09-01T00:15:08.450Z,0
2017-09-01T00:16:17.286Z,0
2017-09-01T00:17:26.179Z,0
2017-09-01T00:18:35.019Z,0
2017-09-01T00:19:43.861Z,0
2017-09-01T00:20:52.703Z,0
2017-09-01T00:22:01.545Z,0
2017-09-01T00:23:10.436Z,0
2017-09-01T00:24:19.274Z,0
2017-09-01T00:25:28.115Z,0
2017-09-01T00:26:36.954Z,0
2017-09-01T00:27:45.796Z,0
2017-09-01T00:28:54.637Z,0
2017-09-01T00:30:03.476Z,0
2017-09-01T00:31:12.318Z,0
2017-09-01T00:32:21.159Z,0
2017-09-01T00:33:29.999Z,0
2017-09-01T00:34:39.140Z,0
2017-09-01T00:35:47.980Z,0
2017-09-01T00:36:57.152Z,0
2017-09-01T00:38:05.992Z,0
2017-09-01T00:39:14.835Z,0
2017-09-01T00:40:23.824Z,0
2017-09-01T00:41:32.665Z,0
2017-09-01T00:42:41.840Z,0
2017-09-01T00:43:50.684Z,0
2017-09-01T00:44:59.525Z,0
2017-09-01T00:46:08.466Z,0
2017-09-01T00:47:17.307Z,0
2017-09-01T00:48:26.150Z,0
2017-09-01T00:49:34.993Z,0
2017-09-01T00:50:43.835Z,0
2017-09-01T00:51:52.824Z,0
2017-09-01T00:53:01.666Z,0
2017-09-01T00:54:10.839Z,0
2017-09-01T00:55:20.013Z,0
2017-09-01T00:56:28.854Z,0
2017-09-01T00:57:37.994Z,0
2017-09-01T00:58:46.835Z,0
2017-09-01T00:59:55.683Z,0
2017-09-01T01:01:04.526Z,0
2017-09-01T01:02:13.369Z,0
2017-09-01T01:03:22.361Z,0
2017-09-01T01:04:31.204Z,0
2017-09-01T01:05:40.045Z,0
2017-09-01T01:06:48.888Z,0
2017-09-01T01:07:57.730Z,0
2017-09-01T01:09:06.672Z,0
2017-09-01T01:10:15.515Z,0
2017-09-01T01:11:24.356Z,0
2017-09-01T01:12:33.200Z,0
2017-09-01T01:13:42.039Z,0
2017-09-01T01:14:51.081Z,0
2017-09-01T01:15:59.921Z,0
2017-09-01T01:17:08.756Z,0
2017-09-01T01:18:17.597Z,0
2017-09-01T01:19:26.439Z,0
2017-09-01T01:20:35.431Z,0
2017-09-01T01:21:44.275Z,0
2017-09-01T01:22:53.117Z,0
2017-09-01T01:24:02.286Z,0
2017-09-01T01:25:11.129Z,0
2017-09-01T01:26:20.352Z,0
2017-09-01T01:27:29.192Z,0
2017-09-01T01:28:38.030Z,0
2017-09-01T01:29:46.873Z,0
2017-09-01T01:30:55.714Z,0
2017-09-01T01:32:04.606Z,0
2017-09-01T01:33:13.446Z,0
2017-09-01T01:34:22.287Z,0
2017-09-01T01:35:31.128Z,0
2017-09-01T01:36:39.969Z,0
2017-09-01T01:37:48.963Z,0
2017-09-01T01:38:57.802Z,0
2017-09-01T01:40:06.646Z,0
2017-09-01T01:41:15.487Z,0
2017-09-01T01:42:24.331Z,0
2017-09-01T01:43:33.172Z,0
2017-09-01T01:44:42.014Z,0
2017-09-01T01:45:50.855Z,0
2017-09-01T01:46:59.696Z,0
2017-09-01T01:48:08.539Z,0
2017-09-01T01:49:17.534Z,0
2017-09-01T01:50:26.373Z,0
2017-09-01T01:51:35.213Z,0
2017-09-01T01:52:44.058Z,0
2017-09-01T01:53:53.226Z,0
2017-09-01T01:55:02.320Z,0
2017-09-01T01:56:11.163Z,0
2017-09-01T01:57:20.006Z,0
2017-09-01T01:58:28.849Z,0
2017-09-01T01:59:37.688Z,0
2017-09-01T02:00:46.530Z,0
2017-09-01T02:01:55.370Z,0
2017-09-01T02:03:04.543Z,0
2017-09-01T02:04:13.384Z,0
2017-09-01T02:05:22.224Z,0
2017-09-01T02:06:31.212Z,0
2017-09-01T02:07:40.054Z,0
2017-09-01T02:08:48.894Z,0
2017-09-01T02:09:57.735Z,0
2017-09-01T02:11:06.577Z,0
2017-09-01T02:12:15.666Z,0
2017-09-01T02:13:24.506Z,0
2017-09-01T02:14:33.350Z,0
2017-09-01T02:15:42.191Z,0
2017-09-01T02:16:51.033Z,0
2017-09-01T02:18:00.024Z,0
2017-09-01T02:19:08.867Z,0
2017-09-01T02:20:17.709Z,0
2017-09-01T02:21:26.885Z,0
2017-09-01T02:22:35.727Z,0
2017-09-01T02:23:44.569Z,0
2017-09-01T02:24:53.409Z,0
2017-09-01T02:26:02.252Z,0
2017-09-01T02:27:11.092Z,0
2017-09-01T02:28:19.932Z,0
2017-09-01T02:29:28.824Z,0
2017-09-01T02:30:37.663Z,0
2017-09-01T02:31:46.604Z,0
2017-09-01T02:32:55.447Z,0
2017-09-01T02:34:04.286Z,0
2017-09-01T02:35:13.179Z,0
2017-09-01T02:36:22.018Z,0
2017-09-01T02:37:30.857Z,0
2017-09-01T02:38:39.702Z,0
2017-09-01T02:39:48.545Z,0
2017-09-01T02:40:57.639Z,0
2017-09-01T02:42:06.478Z,0
2017-09-01T02:43:15.322Z,0
2017-09-01T02:44:24.163Z,0
2017-09-01T02:45:33.002Z,0
2017-09-01T02:46:41.996Z,0
2017-09-01T02:47:51.172Z,0
2017-09-01T02:49:00.015Z,0
2017-09-01T02:50:08.856Z,0
2017-09-01T02:51:17.699Z,0
2017-09-01T02:52:26.842Z,0
2017-09-01T02:53:36.023Z,0
2017-09-01T02:54:44.866Z,0
2017-09-01T02:55:53.707Z,0
2017-09-01T02:57:02.551Z,0
2017-09-01T02:58:11.490Z,0
2017-09-01T02:59:20.332Z,0
2017-09-01T03:00:29.504Z,0
2017-09-01T03:01:38.344Z,0
2017-09-01T03:02:47.188Z,0
2017-09-01T03:03:56.178Z,0
2017-09-01T03:05:05.352Z,0
2017-09-01T03:06:14.199Z,0
2017-09-01T03:07:23.036Z,0
2017-09-01T03:08:31.877Z,0
2017-09-01T03:09:40.919Z,0
2017-09-01T03:10:49.758Z,0
2017-09-01T03:11:58.601Z,0
2017-09-01T03:13:07.771Z,0
2017-09-01T03:14:16.610Z,0
2017-09-01T03:15:25.601Z,0
2017-09-01T03:16:34.443Z,0
2017-09-01T03:17:43.284Z,0
2017-09-01T03:18:52.124Z,0
2017-09-01T03:20:00.965Z,0
2017-09-01T03:21:09.955Z,0
2017-09-01T03:22:18.797Z,0
2017-09-01T03:23:27.639Z,0
2017-09-01T03:24:36.479Z,0
2017-09-01T03:25:45.323Z,0
2017-09-01T03:26:54.644Z,0
2017-09-01T03:28:03.483Z,0
2017-09-01T03:29:12.322Z,0
2017-09-01T03:30:21.501Z,0
2017-09-01T03:31:30.342Z,0
2017-09-01T03:32:39.482Z,0
2017-09-01T03:33:48.655Z,0
2017-09-01T03:34:57.494Z,0
2017-09-01T03:36:06.335Z,0
2017-09-01T03:37:15.174Z,0
2017-09-01T03:38:24.164Z,0
2017-09-01T03:39:33.007Z,0
2017-09-01T03:40:41.850Z,0
2017-09-01T03:41:50.694Z,0
2017-09-01T03:42:59.536Z,0
2017-09-01T03:44:08.478Z,0
2017-09-01T03:45:17.318Z,0
2017-09-01T03:46:26.159Z,0
2017-09-01T03:47:35.002Z,0
2017-09-01T03:48:43.845Z,0
2017-09-01T03:49:53.117Z,0
2017-09-01T03:51:01.957Z,0
2017-09-01T03:52:10.797Z,0
2017-09-01T03:53:19.640Z,0
2017-09-01T03:54:28.476Z,0
2017-09-01T03:55:37.320Z,0
2017-09-01T03:56:46.161Z,0
2017-09-01T03:57:55.001Z,0
2017-09-01T03:59:03.841Z,0
2017-09-01T04:00:12.683Z,0
2017-09-01T04:01:21.624Z,0
2017-09-01T04:02:30.467Z,0
2017-09-01T04:03:39.306Z,0
2017-09-01T04:04:48.484Z,0
2017-09-01T04:05:57.323Z,0
2017-09-01T04:07:06.414Z,0
2017-09-01T04:08:15.254Z,0
2017-09-01T04:09:24.095Z,0
2017-09-01T04:10:32.936Z,0
2017-09-01T04:11:41.777Z,0
2017-09-01T04:12:50.720Z,4
2017-09-01T04:13:59.559Z,4
2017-09-01T04:15:08.738Z,4
2017-09-01T04:16:17.579Z,4
2017-09-01T04:17:26.418Z,4
2017-09-01T04:18:35.359Z,4
2017-09-01T04:19:44.200Z,8
2017-09-01T04:20:53.039Z,4
2017-09-01T04:22:01.880Z,8
2017-09-01T04:23:10.718Z,12
2017-09-01T04:24:19.859Z,12
2017-09-01T04:25:28.698Z,12
2017-09-01T04:26:37.539Z,16
2017-09-01T04:27:46.379Z,20
2017-09-01T04:28:55.226Z,20
2017-09-01T04:30:04.452Z,24
2017-09-01T04:31:13.294Z,28
2017-09-01T04:32:22.132Z,32
2017-09-01T04:33:30.971Z,32
2017-09-01T04:34:39.814Z,40
2017-09-01T04:35:48.656Z,44
2017-09-01T04:36:57.498Z,52
2017-09-01T04:38:06.341Z,56
2017-09-01T04:39:15.181Z,64
2017-09-01T04:40:24.023Z,72
2017-09-01T04:41:33.164Z,76
2017-09-01T04:42:42.003Z,88
2017-09-01T04:43:50.844Z,92
2017-09-01T04:44:59.685Z,104
2017-09-01T04:46:08.524Z,112
2017-09-01T04:47:17.527Z,120
2017-09-01T04:48:26.363Z,132
2017-09-01T04:49:35.536Z,140
2017-09-01T04:50:44.708Z,152
2017-09-01T04:51:53.549Z,160
2017-09-01T04:53:02.388Z,172
2017-09-01T04:54:11.558Z,184
2017-09-01T04:55:20.400Z,196
2017-09-01T04:56:29.239Z,208
2017-09-01T04:57:38.079Z,220
2017-09-01T04:58:46.974Z,232
2017-09-01T04:59:55.814Z,244
2017-09-01T05:01:04.655Z,256
2017-09-01T05:02:13.499Z,272
2017-09-01T05:03:22.342Z,284
2017-09-01T05:04:31.336Z,296
2017-09-01T05:05:40.177Z,308
2017-09-01T05:06:49.023Z,316
2017-09-01T05:07:57.868Z,332
2017-09-01T05:09:06.710Z,348
2017-09-01T05:10:15.707Z,364
2017-09-01T05:11:24.882Z,376
2017-09-01T05:12:33.725Z,392
2017-09-01T05:13:42.566Z,404
2017-09-01T05:14:51.411Z,424
2017-09-01T05:16:00.783Z,444
2017-09-01T05:17:09.625Z,460
2017-09-01T05:18:18.467Z,480
2017-09-01T05:19:27.311Z,492
2017-09-01T05:20:36.153Z,500
2017-09-01T05:21:45.244Z,516
2017-09-01T05:22:54.086Z,528
2017-09-01T05:24:02.931Z,540
2017-09-01T05:25:11.770Z,552
2017-09-01T05:26:20.611Z,564
2017-09-01T05:27:29.605Z,580
2017-09-01T05:28:38.495Z,592
2017-09-01T05:29:47.341Z,604
2017-09-01T05:30:56.182Z,616
2017-09-01T05:32:05.024Z,628
2017-09-01T05:33:13.967Z,640
2017-09-01T05:34:22.809Z,648
2017-09-01T05:35:31.652Z,660
2017-09-01T05:36:40.498Z,672
2017-09-01T05:37:49.668Z,684
2017-09-01T05:38:58.662Z,692
2017-09-01T05:40:07.507Z,704
2017-09-01T05:41:16.344Z,716
2017-09-01T05:42:25.187Z,724
2017-09-01T05:43:34.125Z,736
2017-09-01T05:44:43.116Z,748
2017-09-01T05:45:51.957Z,756
2017-09-01T05:47:00.801Z,764
2017-09-01T05:48:09.643Z,772
2017-09-01T05:49:18.484Z,784
2017-09-01T05:50:27.428Z,788
2017-09-01T05:51:36.269Z,800
2017-09-01T05:52:45.112Z,808
2017-09-01T05:53:53.960Z,816
2017-09-01T05:55:02.800Z,824
2017-09-01T05:56:11.691Z,836
2017-09-01T05:57:20.535Z,840
2017-09-01T05:58:29.374Z,852
2017-09-01T05:59:38.220Z,856
2017-09-01T06:00:47.060Z,864
2017-09-01T06:01:56.055Z,868
2017-09-01T06:03:04.897Z,876
2017-09-01T06:04:14.073Z,880
2017-09-01T06:05:22.917Z,888
2017-09-01T06:06:31.761Z,896
2017-09-01T06:07:40.754Z,904
2017-09-01T06:08:49.596Z,908
2017-09-01T06:09:58.437Z,916
2017-09-01T06:11:07.281Z,920
2017-09-01T06:12:16.125Z,924
2017-09-01T06:13:25.018Z,932
2017-09-01T06:14:33.860Z,936
2017-09-01T06:15:42.707Z,940
2017-09-01T06:16:51.888Z,944
2017-09-01T06:18:00.731Z,952
2017-09-01T06:19:09.913Z,956
2017-09-01T06:20:18.758Z,964
2017-09-01T06:21:27.602Z,968
2017-09-01T06:22:36.446Z,972
2017-09-01T06:23:45.290Z,980
2017-09-01T06:24:54.287Z,984
2017-09-01T06:26:03.133Z,992
2017-09-01T06:27:11.980Z,992
2017-09-01T06:28:20.825Z,1000
2017-09-01T06:29:30.001Z,1004
2017-09-01T06:30:38.894Z,1008
2017-09-01T06:31:47.737Z,1012
2017-09-01T06:32:56.581Z,1016
2017-09-01T06:34:05.430Z,1024
2017-09-01T06:35:14.603Z,1028
2017-09-01T06:36:23.605Z,1032
2017-09-01T06:37:32.451Z,1040
2017-09-01T06:38:41.629Z,1044
2017-09-01T06:39:50.477Z,1048
2017-09-01T06:40:59.324Z,1056
2017-09-01T06:42:08.652Z,1056
2017-09-01T06:43:17.496Z,1060
2017-09-01T06:44:26.344Z,1064
2017-09-01T06:45:35.193Z,1064
2017-09-01T06:46:44.372Z,1072
2017-09-01T06:47:53.694Z,1076
2017-09-01T06:49:02.538Z,1080
2017-09-01T06:50:11.379Z,1084
2017-09-01T06:51:20.224Z,1088
2017-09-01T06:52:29.066Z,1088
2017-09-01T06:53:38.162Z,1092
2017-09-01T06:54:47.008Z,1092
2017-09-01T06:55:55.849Z,1096
2017-09-01T06:57:04.693Z,1100
2017-09-01T06:58:13.535Z,1100
2017-09-01T06:59:22.581Z,1108
2017-09-01T07:00:31.430Z,1108
2017-09-01T07:01:40.273Z,1112
2017-09-01T07:02:49.118Z,1116
2017-09-01T07:03:57.965Z,1116
2017-09-01T07:05:06.959Z,1116
2017-09-01T07:06:15.806Z,1124
2017-09-01T07:07:24.655Z,1124
2017-09-01T07:08:33.493Z,1124
2017-09-01T07:09:42.339Z,1128
2017-09-01T07:10:51.486Z,1128
2017-09-01T07:12:00.330Z,1132
2017-09-01T07:13:09.175Z,1136
2017-09-01T07:14:18.018Z,1140
2017-09-01T07:15:26.865Z,1144
2017-09-01T07:16:35.863Z,1144
2017-09-01T07:17:45.037Z,1144
2017-09-01T07:18:53.880Z,1152
2017-09-01T07:20:02.730Z,1156
2017-09-01T07:21:11.577Z,1156
2017-09-01T07:22:20.723Z,1160
2017-09-01T07:23:29.568Z,1164
2017-09-01T07:24:38.412Z,1164
2017-09-01T07:25:47.259Z,1164
2017-09-01T07:26:56.102Z,1164
2017-09-01T07:28:05.094Z,1168
2017-09-01T07:29:13.938Z,1172
2017-09-01T07:30:22.781Z,1172
2017-09-01T07:31:31.627Z,1180
2017-09-01T07:32:40.474Z,1176
2017-09-01T07:33:49.421Z,1176
2017-09-01T07:34:58.266Z,1180
2017-09-01T07:36:07.447Z,1188
2017-09-01T07:37:16.290Z,1192
2017-09-01T07:38:25.138Z,1200
2017-09-01T07:39:34.034Z,1204
2017-09-01T07:40:42.884Z,1208
2017-09-01T07:41:51.732Z,1208
2017-09-01T07:43:00.581Z,1204
2017-09-01T07:44:09.430Z,1208
2017-09-01T07:45:18.677Z,1212
2017-09-01T07:46:27.525Z,1216
2017-09-01T07:47:36.375Z,1212
2017-09-01T07:48:45.226Z,1216
2017-09-01T07:49:54.075Z,1216
2017-09-01T07:51:03.221Z,1216
2017-09-01T07:52:12.069Z,1220
2017-09-01T07:53:20.915Z,1228
2017-09-01T07:54:29.760Z,1236
2017-09-01T07:55:38.607Z,1240
2017-09-01T07:56:47.558Z,1244
2017-09-01T07:57:56.405Z,1248
2017-09-01T07:59:05.255Z,1252
2017-09-01T08:00:14.101Z,1248
2017-09-01T08:01:22.948Z,1252
2017-09-01T08:02:32.045Z,1248
2017-09-01T08:03:40.894Z,1256
2017-09-01T08:04:49.740Z,1260
2017-09-01T08:05:58.586Z,1264
2017-09-01T08:07:07.434Z,1264
2017-09-01T08:08:16.532Z,1272
2017-09-01T08:09:25.381Z,1280
2017-09-01T08:10:34.228Z,1284
2017-09-01T08:11:43.075Z,1288
2017-09-01T08:12:52.261Z,1292
2017-09-01T08:14:01.407Z,1288
2017-09-01T08:15:10.253Z,1288
2017-09-01T08:16:19.101Z,1296
2017-09-01T08:17:27.955Z,1300
2017-09-01T08:18:36.802Z,1304
2017-09-01T08:19:45.951Z,1308
2017-09-01T08:20:54.804Z,1324
2017-09-01T08:22:03.653Z,1332
2017-09-01T08:23:12.838Z,1344
2017-09-01T08:24:22.021Z,1348
2017-09-01T08:25:31.021Z,1352
2017-09-01T08:26:39.868Z,1364
2017-09-01T08:27:48.716Z,1364
2017-09-01T08:28:57.564Z,1372
2017-09-01T08:30:06.743Z,1380
2017-09-01T08:31:15.839Z,1380
2017-09-01T08:32:24.685Z,1388
2017-09-01T08:33:33.532Z,1392
2017-09-01T08:34:42.380Z,1400
2017-09-01T08:35:51.225Z,1408
2017-09-01T08:37:00.561Z,1416
2017-09-01T08:38:09.410Z,1420
2017-09-01T08:39:18.260Z,1428
2017-09-01T08:40:27.105Z,1436
2017-09-01T08:41:35.952Z,1460
2017-09-01T08:42:44.851Z,1472
2017-09-01T08:43:53.698Z,1480
2017-09-01T08:45:02.545Z,1492
2017-09-01T08:46:11.393Z,1488
2017-09-01T08:47:20.240Z,1488
2017-09-01T08:48:29.241Z,1492
2017-09-01T08:49:38.088Z,1540
2017-09-01T08:50:46.941Z,1604
2017-09-01T08:51:55.790Z,1556
2017-09-01T08:53:04.640Z,1548
2017-09-01T08:54:13.592Z,1556
2017-09-01T08:55:22.446Z,1544
2017-09-01T08:56:31.294Z,1556
2017-09-01T08:57:40.492Z,1584
2017-09-01T08:58:49.341Z,1596
2017-09-01T08:59:58.339Z,1508
2017-09-01T09:01:07.185Z,1532
2017-09-01T09:02:16.030Z,1624
2017-09-01T09:03:25.211Z,1600
2017-09-01T09:04:34.064Z,1592
2017-09-01T09:05:42.966Z,1548
2017-09-01T09:06:51.815Z,1500
2017-09-01T09:08:00.662Z,1380
2017-09-01T09:09:09.517Z,1468
2017-09-01T09:10:18.368Z,1580
2017-09-01T09:11:27.365Z,1604
2017-09-01T09:12:36.212Z,1720
2017-09-01T09:13:45.058Z,1576
2017-09-01T09:14:53.908Z,1648
2017-09-01T09:16:02.757Z,1612
2017-09-01T09:17:11.807Z,1532
2017-09-01T09:18:20.657Z,1572
2017-09-01T09:19:29.504Z,1824
2017-09-01T09:20:38.354Z,2128
2017-09-01T09:21:47.199Z,2360
2017-09-01T09:22:56.047Z,2324
2017-09-01T09:24:04.898Z,2240
2017-09-01T09:25:13.747Z,2012
2017-09-01T09:26:22.597Z,1976
2017-09-01T09:27:31.778Z,1908
2017-09-01T09:28:40.775Z,1900
2017-09-01T09:29:49.624Z,2280
2017-09-01T09:30:58.473Z,2772
2017-09-01T09:32:07.322Z,2880
2017-09-01T09:33:16.175Z,2844
2017-09-01T09:34:25.277Z,2616
2017-09-01T09:35:34.124Z,2948
2017-09-01T09:36:42.972Z,2996
2017-09-01T09:37:51.820Z,3104
2017-09-01T09:39:00.672Z,3196
2017-09-01T09:40:09.524Z,3432
2017-09-01T09:41:18.372Z,3524
2017-09-01T09:42:27.221Z,3788
2017-09-01T09:43:36.068Z,4292
2017-09-01T09:44:44.918Z,4636
2017-09-01T09:45:53.821Z,4712
2017-09-01T09:47:02.666Z,4688
2017-09-01T09:48:11.518Z,4556
2017-09-01T09:49:20.704Z,4464
2017-09-01T09:50:29.550Z,4684
2017-09-01T09:51:38.550Z,4996
2017-09-01T09:52:47.399Z,5100
2017-09-01T09:53:56.248Z,5276
2017-09-01T09:55:05.096Z,5436
2017-09-01T09:56:13.945Z,5628
2017-09-01T09:57:22.957Z,5304
2017-09-01T09:58:31.810Z,5472
2017-09-01T09:59:40.661Z,5672
2017-09-01T10:00:49.512Z,5748
2017-09-01T10:01:58.360Z,5720
2017-09-01T10:03:07.312Z,5596
2017-09-01T10:04:16.494Z,5792
2017-09-01T10:05:25.344Z,6116
2017-09-01T10:06:34.194Z,5940
2017-09-01T10:07:43.045Z,6172
2017-09-01T10:08:51.945Z,6016
2017-09-01T10:10:00.790Z,5408
2017-09-01T10:11:09.640Z,5964
2017-09-01T10:12:18.488Z,5932
2017-09-01T10:13:27.337Z,5860
2017-09-01T10:14:36.341Z,5836
2017-09-01T10:15:45.186Z,6012
2017-09-01T10:16:54.037Z,5688
2017-09-01T10:18:02.888Z,5608
2017-09-01T10:19:11.740Z,5796
2017-09-01T10:20:20.741Z,6012
2017-09-01T10:21:29.593Z,6580
2017-09-01T10:22:38.444Z,6636
2017-09-01T10:23:47.294Z,6676
2017-09-01T10:24:56.143Z,7300
2017-09-01T10:26:05.191Z,6748
2017-09-01T10:27:14.042Z,6088
2017-09-01T10:28:22.891Z,6120
2017-09-01T10:29:31.742Z,6752
2017-09-01T10:30:40.925Z,7012
2017-09-01T10:31:49.876Z,6564
2017-09-01T10:32:58.726Z,6560
2017-09-01T10:34:07.576Z,6096
2017-09-01T10:35:16.428Z,5852
2017-09-01T10:36:25.280Z,6004
2017-09-01T10:37:34.663Z,6176
2017-09-01T10:38:43.513Z,6568
2017-09-01T10:39:52.365Z,6584
2017-09-01T10:41:01.217Z,6584
2017-09-01T10:42:10.069Z,6380
2017-09-01T10:43:19.179Z,6392
2017-09-01T10:44:28.360Z,6300
2017-09-01T10:45:37.210Z,6004
2017-09-01T10:46:46.060Z,6448
2017-09-01T10:47:54.912Z,7044
2017-09-01T10:49:03.914Z,7004
2017-09-01T10:50:12.763Z,6868
2017-09-01T10:51:21.612Z,6784
2017-09-01T10:52:30.465Z,6884
2017-09-01T10:53:39.316Z,7020
2017-09-01T10:54:48.268Z,7416
2017-09-01T10:55:57.122Z,7392
2017-09-01T10:57:05.974Z,7192
2017-09-01T10:58:14.828Z,7012
2017-09-01T10:59:23.678Z,7372
2017-09-01T11:00:32.630Z,7616
2017-09-01T11:01:41.482Z,7780
2017-09-01T11:02:50.340Z,7996
2017-09-01T11:03:59.183Z,7872
2017-09-01T11:05:08.034Z,8176
2017-09-01T11:06:16.932Z,8236
2017-09-01T11:07:25.786Z,8184
2017-09-01T11:08:34.643Z,7488
2017-09-01T11:09:43.495Z,7728
2017-09-01T11:10:52.349Z,8604
2017-09-01T11:12:01.501Z,8300
2017-09-01T11:13:10.684Z,7600
2017-09-01T11:14:19.535Z,7500
2017-09-01T11:15:28.388Z,7604
2017-09-01T11:16:37.243Z,7248
2017-09-01T11:17:46.098Z,7220
2017-09-01T11:18:54.950Z,7136
2017-09-01T11:20:03.801Z,7284
2017-09-01T11:21:12.651Z,7164
2017-09-01T11:22:21.606Z,7016
2017-09-01T11:23:31.089Z,6884
2017-09-01T11:24:39.941Z,7028
2017-09-01T11:25:48.792Z,7488
2017-09-01T11:26:57.644Z,7464
2017-09-01T11:28:06.497Z,7180
2017-09-01T11:29:15.548Z,7200
2017-09-01T11:30:24.399Z,7164
2017-09-01T11:31:33.250Z,7128
2017-09-01T11:32:42.102Z,7000
2017-09-01T11:33:50.953Z,6912
2017-09-01T11:34:59.955Z,6876
2017-09-01T11:36:09.140Z,6884
2017-09-01T11:37:17.990Z,6548
2017-09-01T11:38:26.842Z,6512
2017-09-01T11:39:36.027Z,6524
2017-09-01T11:40:44.978Z,6816
2017-09-01T11:41:53.830Z,6684
2017-09-01T11:43:02.681Z,6320
2017-09-01T11:44:11.531Z,6352
2017-09-01T11:45:20.383Z,6436
2017-09-01T11:46:29.283Z,6328
2017-09-01T11:47:38.134Z,6292
2017-09-01T11:48:46.986Z,6096
2017-09-01T11:49:56.175Z,5916
2017-09-01T11:51:05.069Z,5720
2017-09-01T11:52:13.923Z,6008
2017-09-01T11:53:22.784Z,6448
2017-09-01T11:54:31.974Z,6856
2017-09-01T11:55:40.826Z,7724
2017-09-01T11:56:49.688Z,10344
2017-09-01T11:57:58.542Z,21120
2017-09-01T11:59:07.392Z,24704
2017-09-01T12:00:16.245Z,20480
2017-09-01T12:01:25.427Z,23040
2017-09-01T12:02:34.278Z,20064
2017-09-01T12:03:43.134Z,25824
2017-09-01T12:04:52.033Z,24032
2017-09-01T12:06:00.887Z,19200
2017-09-01T12:07:09.743Z,9624
2017-09-01T12:08:18.596Z,8212
2017-09-01T12:09:27.448Z,13552
2017-09-01T12:10:36.298Z,22656
2017-09-01T12:11:45.151Z,17824
2017-09-01T12:12:54.003Z,38496
2017-09-01T12:14:02.857Z,54848
2017-09-01T12:15:11.709Z,36800
2017-09-01T12:16:20.606Z,26304
2017-09-01T12:17:29.462Z,31680
2017-09-01T12:18:38.317Z,10372
2017-09-01T12:19:47.170Z,18304
2017-09-01T12:20:56.094Z,24640
2017-09-01T12:22:04.949Z,35232
2017-09-01T12:23:13.957Z,28832
2017-09-01T12:24:22.812Z,33984
2017-09-01T12:25:31.666Z,45824
2017-09-01T12:26:40.521Z,41184
2017-09-01T12:27:49.408Z,23360
2017-09-01T12:28:58.413Z,29792
2017-09-01T12:30:07.280Z,22592
2017-09-01T12:31:16.491Z,20160
2017-09-01T12:32:25.677Z,12280
2017-09-01T12:33:34.532Z,17888
2017-09-01T12:34:43.488Z,17280
2017-09-01T12:35:52.345Z,10844
2017-09-01T12:37:01.200Z,11528
2017-09-01T12:38:10.390Z,12556
2017-09-01T12:39:19.242Z,13260
2017-09-01T12:40:28.396Z,12084
2017-09-01T12:41:37.251Z,9572
2017-09-01T12:42:46.442Z,9576
2017-09-01T12:43:55.300Z,9212
2017-09-01T12:45:04.154Z,9968
2017-09-01T12:46:13.209Z,11212
2017-09-01T12:47:22.070Z,11208
2017-09-01T12:48:30.926Z,11024
2017-09-01T12:49:39.778Z,10560
2017-09-01T12:50:48.631Z,11576
2017-09-01T12:51:57.702Z,11884
2017-09-01T12:53:06.558Z,12488
2017-09-01T12:54:15.413Z,10584
2017-09-01T12:55:24.400Z,9248
2017-09-01T12:56:33.263Z,9748
2017-09-01T12:57:42.269Z,10576
2017-09-01T12:58:51.126Z,10556
2017-09-01T13:00:00.328Z,8976
2017-09-01T13:01:09.184Z,8224
2017-09-01T13:02:18.074Z,8720
2017-09-01T13:03:26.932Z,10168
2017-09-01T13:04:35.791Z,10880
2017-09-01T13:05:44.640Z,11576
2017-09-01T13:06:53.501Z,12748
2017-09-01T13:08:02.355Z,11840
2017-09-01T13:09:11.691Z,11904
2017-09-01T13:10:20.551Z,12132
2017-09-01T13:11:29.405Z,12840
2017-09-01T13:12:38.283Z,12028
2017-09-01T13:13:48.097Z,11956
2017-09-01T13:14:57.229Z,11672
2017-09-01T13:16:06.352Z,13680
2017-09-01T13:17:15.207Z,12804
2017-09-01T13:18:24.319Z,14096
2017-09-01T13:19:33.319Z,11588
2017-09-01T13:20:42.324Z,10900
2017-09-01T13:21:51.179Z,11464
2017-09-01T13:23:00.085Z,13900
2017-09-01T13:24:08.966Z,13092
2017-09-01T13:25:17.820Z,13100
2017-09-01T13:26:27.283Z,12748
2017-09-01T13:27:36.500Z,12792
2017-09-01T13:28:45.351Z,13204
2017-09-01T13:29:54.208Z,14848
2017-09-01T13:31:03.313Z,11652
2017-09-01T13:32:12.307Z,12308
2017-09-01T13:33:21.193Z,13348
2017-09-01T13:34:30.060Z,11140
2017-09-01T13:35:38.915Z,10564
2017-09-01T13:36:47.834Z,9964
2017-09-01T13:37:56.857Z,10000
2017-09-01T13:39:05.875Z,10560
2017-09-01T13:40:14.731Z,13764
2017-09-01T13:41:23.588Z,35136
2017-09-01T13:42:32.441Z,20224
2017-09-01T13:43:41.408Z,14744
2017-09-01T13:44:50.265Z,11452
2017-09-01T13:45:59.122Z,11304
2017-09-01T13:47:07.977Z,15520
2017-09-01T13:48:16.833Z,27008
2017-09-01T13:49:25.862Z,31008
2017-09-01T13:50:34.716Z,29824
2017-09-01T13:51:43.571Z,23200
2017-09-01T13:52:52.429Z,43328
2017-09-01T13:54:01.283Z,48768
2017-09-01T13:55:10.294Z,51872
2017-09-01T13:56:19.152Z,44032
2017-09-01T13:57:28.008Z,43520
2017-09-01T13:58:36.865Z,44192
2017-09-01T13:59:45.742Z,33184
2017-09-01T14:00:54.905Z,25760
2017-09-01T14:02:03.766Z,20800
2017-09-01T14:03:12.617Z,18944
2017-09-01T14:04:21.479Z,22912
2017-09-01T14:05:30.335Z,17920
2017-09-01T14:06:39.370Z,26144
2017-09-01T14:07:48.204Z,41888
2017-09-01T14:08:57.062Z,40352
2017-09-01T14:10:05.919Z,44000
2017-09-01T14:11:15.115Z,44704
2017-09-01T14:12:24.025Z,41280
2017-09-01T14:13:32.881Z,41280
2017-09-01T14:14:42.071Z,44448
2017-09-01T14:15:50.928Z,42112
2017-09-01T14:16:59.786Z,42976
2017-09-01T14:18:08.696Z,42624
2017-09-01T14:19:17.556Z,40096
2017-09-01T14:20:26.416Z,40736
2017-09-01T14:21:35.276Z,40544
2017-09-01T14:22:44.137Z,35232
2017-09-01T14:23:53.298Z,33952
2017-09-01T14:25:02.159Z,33792
2017-09-01T14:26:11.023Z,27616
2017-09-01T14:27:19.887Z,8708
2017-09-01T14:28:29.080Z,6048
2017-09-01T14:29:38.093Z,6936
2017-09-01T14:30:47.290Z,18240
2017-09-01T14:31:56.490Z,9024
2017-09-01T14:33:05.351Z,7316
2017-09-01T14:34:14.215Z,7756
2017-09-01T14:35:23.276Z,10016
2017-09-01T14:36:32.145Z,12012
2017-09-01T14:37:41.228Z,6112
2017-09-01T14:38:50.089Z,9780
2017-09-01T14:39:58.962Z,17056
2017-09-01T14:41:08.125Z,7184
2017-09-01T14:42:16.980Z,7312
2017-09-01T14:43:25.837Z,9184
2017-09-01T14:44:34.742Z,12848
2017-09-01T14:45:43.659Z,10028
2017-09-01T14:46:52.618Z,27456
2017-09-01T14:48:01.478Z,32480
2017-09-01T14:49:10.335Z,40096
2017-09-01T14:50:19.529Z,42400
2017-09-01T14:51:28.426Z,40352
2017-09-01T14:52:37.779Z,45792
2017-09-01T14:53:46.621Z,44416
2017-09-01T14:54:55.497Z,42624
2017-09-01T14:56:04.411Z,41824
2017-09-01T14:57:13.282Z,36576
2017-09-01T14:58:22.278Z,35040
2017-09-01T14:59:31.139Z,11652
2017-09-01T15:00:40.001Z,16896
2017-09-01T15:01:48.890Z,35968
2017-09-01T15:02:57.756Z,39520
2017-09-01T15:04:06.766Z,40800
2017-09-01T15:05:15.631Z,38912
2017-09-01T15:06:24.492Z,30784
2017-09-01T15:07:33.353Z,32288
2017-09-01T15:08:42.216Z,37280
2017-09-01T15:09:51.281Z,33888
2017-09-01T15:11:00.154Z,38432
2017-09-01T15:12:09.016Z,34624
2017-09-01T15:13:17.878Z,28768
2017-09-01T15:14:26.745Z,34656
2017-09-01T15:15:35.656Z,35136
2017-09-01T15:16:44.518Z,36544
2017-09-01T15:17:53.381Z,32256
2017-09-01T15:19:02.248Z,34592
2017-09-01T15:20:11.113Z,32448
2017-09-01T15:21:20.458Z,35136
2017-09-01T15:22:29.324Z,33696
2017-09-01T15:23:38.190Z,29632
2017-09-01T15:24:47.051Z,32800
2017-09-01T15:25:55.915Z,35136
2017-09-01T15:27:04.928Z,33408
2017-09-01T15:28:13.801Z,33184
2017-09-01T15:29:22.995Z,30336
2017-09-01T15:30:31.861Z,13472
2017-09-01T15:31:40.721Z,8796
2017-09-01T15:32:49.631Z,7608
2017-09-01T15:33:58.493Z,6280
2017-09-01T15:35:07.356Z,6776
2017-09-01T15:36:16.215Z,6672
2017-09-01T15:37:25.082Z,7012
2017-09-01T15:38:34.245Z,7788
2017-09-01T15:39:43.105Z,9584
2017-09-01T15:40:51.962Z,14308
2017-09-01T15:42:00.822Z,10084